createdAt,value
2018-04-11T00:00:40.940Z,4.00
2018-04-11T00:01:40.956Z,4.00
2018-04-11T00:02:40.968Z,4.00
2018-04-11T00:03:41.034Z,4.00
2018-04-11T00:04:41.000Z,4.00
2018-04-11T00:05:41.018Z,4.00
2018-04-11T00:06:41.030Z,4.00
2018-04-11T00:07:41.046Z,4.00
2018-04-11T00:08:41.061Z,4.00
2018-04-11T00:09:41.075Z,4.00
2018-04-11T00:10:41.092Z,4.00
2018-04-11T00:11:41.105Z,4.00
2018-04-11T00:12:41.121Z,4.00
2018-04-11T00:13:41.135Z,4.00
2018-04-11T00:14:41.151Z,4.00
2018-04-11T00:15:41.220Z,4.00
2018-04-11T00:16:41.185Z,4.00
2018-04-11T00:17:41.200Z,4.00
2018-04-11T00:18:41.220Z,4.00
2018-04-11T00:19:41.231Z,4.00
2018-04-11T00:20:41.245Z,4.00
2018-04-11T00:21:41.266Z,4.00
2018-04-11T00:22:41.275Z,4.00
2018-04-11T00:23:41.370Z,4.00
2018-04-11T00:24:41.308Z,4.00
2018-04-11T00:25:41.330Z,4.00
2018-04-11T00:26:41.338Z,4.00
2018-04-11T00:27:41.356Z,4.00
2018-04-11T00:28:41.368Z,4.00
2018-04-11T00:29:41.387Z,4.00
2018-04-11T00:30:41.398Z,4.00
2018-04-11T00:31:41.410Z,4.00
2018-04-11T00:32:41.426Z,4.00
2018-04-11T00:33:41.444Z,4.00
2018-04-11T00:34:41.455Z,4.00
2018-04-11T00:35:41.472Z,4.00
2018-04-11T00:36:41.485Z,4.00
2018-04-11T00:37:41.500Z,4.00
2018-04-11T00:38:41.518Z,4.00
2018-04-11T00:39:41.580Z,4.00
2018-04-11T00:40:41.563Z,4.00
2018-04-11T00:41:41.558Z,4.00
2018-04-11T00:42:41.574Z,4.00
2018-04-11T00:43:41.588Z,4.00
2018-04-11T00:44:41.603Z,4.00
2018-04-11T00:45:41.670Z,4.00
2018-04-11T00:46:41.675Z,4.00
2018-04-11T00:47:41.663Z,4.00
2018-04-11T00:48:41.670Z,4.00
2018-04-11T00:49:41.715Z,4.00
2018-04-11T00:50:41.692Z,4.00
2018-04-11T00:51:41.722Z,4.00
2018-04-11T00:52:41.724Z,4.00
2018-04-11T00:53:41.741Z,4.00
2018-04-11T00:54:41.752Z,4.00
2018-04-11T00:55:41.769Z,4.00
2018-04-11T00:56:41.781Z,4.00
2018-04-11T00:57:41.796Z,4.00
2018-04-11T00:58:41.812Z,4.00
2018-04-11T00:59:41.828Z,4.00
2018-04-11T01:00:41.843Z,4.00
2018-04-11T01:01:41.859Z,4.00
2018-04-11T01:02:41.869Z,4.00
2018-04-11T01:03:41.934Z,4.00
2018-04-11T01:04:41.899Z,4.00
2018-04-11T01:05:41.914Z,4.00
2018-04-11T01:06:41.928Z,4.00
2018-04-11T01:07:41.946Z,4.00
2018-04-11T01:08:41.963Z,4.00
2018-04-11T01:09:42.009Z,4.00
2018-04-11T01:10:41.990Z,4.00
2018-04-11T01:11:42.004Z,4.00
2018-04-11T01:12:42.022Z,4.00
2018-04-11T01:13:42.036Z,4.00
2018-04-11T01:14:42.052Z,4.00
2018-04-11T01:15:42.077Z,4.00
2018-04-11T01:16:42.079Z,4.00
2018-04-11T01:17:42.097Z,4.00
2018-04-11T01:18:42.111Z,4.00
2018-04-11T01:19:42.131Z,4.00
2018-04-11T01:20:42.202Z,4.00
2018-04-11T01:21:42.213Z,4.00
2018-04-11T01:22:42.170Z,4.00
2018-04-11T01:23:42.185Z,4.00
2018-04-11T01:24:42.203Z,4.00
2018-04-11T01:25:42.217Z,4.00
2018-04-11T01:26:42.231Z,4.00
2018-04-11T01:27:42.297Z,4.00
2018-04-11T01:28:42.262Z,4.00
2018-04-11T01:29:42.284Z,4.00
2018-04-11T01:30:42.306Z,4.00
2018-04-11T01:31:42.305Z,4.00
2018-04-11T01:32:42.322Z,4.00
2018-04-11T01:33:42.387Z,4.00
2018-04-11T01:34:42.348Z,4.00
2018-04-11T01:35:42.369Z,4.00
2018-04-11T01:36:42.381Z,4.00
2018-04-11T01:37:42.438Z,4.00
2018-04-11T01:38:42.410Z,4.00
2018-04-11T01:39:42.476Z,4.00
2018-04-11T01:40:42.442Z,4.00
2018-04-11T01:41:42.456Z,4.00
2018-04-11T01:42:42.469Z,4.00
2018-04-11T01:43:42.550Z,4.00
2018-04-11T01:44:42.502Z,4.00
2018-04-11T01:45:42.516Z,4.00
2018-04-11T01:46:42.530Z,4.00
2018-04-11T01:47:42.546Z,4.00
2018-04-11T01:48:42.560Z,4.00
2018-04-11T01:49:42.625Z,4.00
2018-04-11T01:50:42.591Z,4.00
2018-04-11T01:51:42.608Z,4.00
2018-04-11T01:52:42.621Z,4.00
2018-04-11T01:53:42.638Z,4.00
2018-04-11T01:54:42.657Z,4.00
2018-04-11T01:55:42.668Z,4.00
2018-04-11T01:56:42.684Z,4.00
2018-04-11T01:57:42.751Z,4.00
2018-04-11T01:58:42.715Z,4.00
2018-04-11T01:59:42.729Z,4.00
2018-04-11T02:00:42.745Z,4.00
2018-04-11T02:01:42.842Z,4.00
2018-04-11T02:02:42.774Z,4.00
2018-04-11T02:03:42.792Z,4.00
2018-04-11T02:04:42.809Z,4.00
2018-04-11T02:05:42.821Z,4.00
2018-04-11T02:06:42.839Z,4.00
2018-04-11T02:07:42.851Z,4.00
2018-04-11T02:08:42.865Z,4.00
2018-04-11T02:09:42.907Z,4.00
2018-04-11T02:10:42.897Z,4.00
2018-04-11T02:11:42.912Z,4.00
2018-04-11T02:12:42.932Z,4.00
2018-04-11T02:13:42.945Z,4.00
2018-04-11T02:14:42.958Z,4.00
2018-04-11T02:15:42.972Z,4.00
2018-04-11T02:16:42.989Z,4.00
2018-04-11T02:17:43.010Z,4.00
2018-04-11T02:18:43.028Z,4.00
2018-04-11T02:19:43.035Z,4.00
2018-04-11T02:20:43.049Z,4.00
2018-04-11T02:21:43.119Z,4.00
2018-04-11T02:22:43.083Z,4.00
2018-04-11T02:23:43.099Z,4.00
2018-04-11T02:24:43.153Z,4.00
2018-04-11T02:25:43.137Z,4.00
2018-04-11T02:26:43.142Z,4.00
2018-04-11T02:27:43.167Z,4.00
2018-04-11T02:28:43.174Z,4.00
2018-04-11T02:29:43.190Z,4.00
2018-04-11T02:30:43.222Z,4.00
2018-04-11T02:31:43.222Z,4.00
2018-04-11T02:32:43.289Z,4.00
2018-04-11T02:33:43.253Z,4.00
2018-04-11T02:34:43.269Z,4.00
2018-04-11T02:35:43.283Z,4.00
2018-04-11T02:36:43.364Z,4.00
2018-04-11T02:37:43.313Z,4.00
2018-04-11T02:38:43.326Z,4.00
2018-04-11T02:39:43.343Z,4.00
2018-04-11T02:40:43.360Z,4.00
2018-04-11T02:41:43.375Z,4.00
2018-04-11T02:42:43.426Z,4.00
2018-04-11T02:43:43.407Z,4.00
2018-04-11T02:44:43.425Z,4.00
2018-04-11T02:45:43.437Z,4.00
2018-04-11T02:46:43.453Z,4.00
2018-04-11T02:47:43.465Z,4.00
2018-04-11T02:48:43.481Z,4.00
2018-04-11T02:49:43.499Z,4.00
2018-04-11T02:50:43.516Z,4.00
2018-04-11T02:51:43.538Z,4.00
2018-04-11T02:52:43.540Z,4.00
2018-04-11T02:53:43.559Z,4.00
2018-04-11T02:54:43.578Z,4.00
2018-04-11T02:55:43.591Z,4.00
2018-04-11T02:56:43.658Z,4.00
2018-04-11T02:57:43.617Z,4.00
2018-04-11T02:58:43.639Z,4.00
2018-04-11T02:59:43.696Z,4.00
2018-04-11T03:00:43.667Z,4.00
2018-04-11T03:01:43.682Z,4.00
2018-04-11T03:03:51.524Z,4.00
2018-04-11T03:04:43.729Z,4.00
2018-04-11T03:05:43.745Z,4.00
2018-04-11T03:06:43.757Z,4.00
2018-04-11T03:07:43.774Z,4.00
2018-04-11T03:08:43.825Z,4.00
2018-04-11T03:09:43.857Z,4.00
2018-04-11T03:10:43.822Z,4.00
2018-04-11T03:11:43.836Z,4.00
2018-04-11T03:12:43.849Z,4.00
2018-04-11T03:13:43.870Z,4.00
2018-04-11T03:14:43.882Z,4.00
2018-04-11T03:15:43.900Z,4.00
2018-04-11T03:16:43.910Z,4.00
2018-04-11T03:17:43.928Z,4.00
2018-04-11T03:18:43.943Z,4.00
2018-04-11T03:19:43.961Z,4.00
2018-04-11T03:20:43.973Z,4.00
2018-04-11T03:21:43.989Z,4.00
2018-04-11T03:22:44.004Z,4.00
2018-04-11T03:23:44.023Z,4.00
2018-04-11T03:24:44.039Z,4.00
2018-04-11T03:25:44.048Z,4.00
2018-04-11T03:26:44.069Z,4.00
2018-04-11T03:27:44.090Z,4.00
2018-04-11T03:28:44.094Z,4.00
2018-04-11T03:29:44.163Z,4.00
2018-04-11T03:30:44.125Z,4.00
2018-04-11T03:31:44.144Z,4.00
2018-04-11T03:32:44.155Z,4.00
2018-04-11T03:33:44.176Z,4.00
2018-04-11T03:34:44.191Z,4.00
2018-04-11T03:35:44.212Z,4.00
2018-04-11T03:36:44.222Z,4.00
2018-04-11T03:37:44.235Z,4.00
2018-04-11T03:38:44.253Z,4.00
2018-04-11T03:39:44.266Z,4.00
2018-04-11T03:40:44.281Z,4.00
2018-04-11T03:41:44.297Z,4.00
2018-04-11T03:42:44.319Z,4.00
2018-04-11T03:43:44.328Z,4.00
2018-04-11T03:44:44.341Z,4.00
2018-04-11T03:45:44.360Z,4.00
2018-04-11T03:46:44.393Z,4.00
2018-04-11T03:47:44.390Z,4.00
2018-04-11T03:48:44.403Z,4.00
2018-04-11T03:49:44.422Z,4.00
2018-04-11T03:50:44.434Z,4.00
2018-04-11T03:51:44.452Z,4.00
2018-04-11T03:52:44.532Z,4.00
2018-04-11T03:53:44.482Z,4.00
2018-04-11T03:54:44.497Z,4.00
2018-04-11T03:55:44.512Z,4.00
2018-04-11T03:56:44.531Z,4.00
2018-04-11T03:57:44.547Z,4.00
2018-04-11T03:58:44.625Z,4.00
2018-04-11T03:59:44.570Z,4.00
2018-04-11T04:00:44.588Z,4.00
2018-04-11T04:01:44.635Z,4.00
2018-04-11T04:02:44.624Z,4.00
2018-04-11T04:03:44.638Z,4.00
2018-04-11T04:04:44.700Z,4.00
2018-04-11T04:05:44.668Z,4.00
2018-04-11T04:06:44.680Z,4.00
2018-04-11T04:07:44.762Z,4.00
2018-04-11T04:08:44.713Z,4.00
2018-04-11T04:09:44.733Z,4.00
2018-04-11T04:10:44.781Z,4.00
2018-04-11T04:11:44.759Z,4.00
2018-04-11T04:12:44.773Z,4.00
2018-04-11T04:13:44.815Z,4.00
2018-04-11T04:14:44.806Z,4.00
2018-04-11T04:15:44.818Z,4.00
2018-04-11T04:16:44.868Z,4.00
2018-04-11T04:17:44.845Z,4.00
2018-04-11T04:18:44.868Z,4.00
2018-04-11T04:19:44.909Z,4.00
2018-04-11T04:20:44.892Z,4.00
2018-04-11T04:21:44.916Z,4.00
2018-04-11T04:22:45.003Z,4.00
2018-04-11T04:23:44.944Z,4.00
2018-04-11T04:24:44.954Z,4.00
2018-04-11T04:25:44.980Z,4.00
2018-04-11T04:26:44.988Z,4.00
2018-04-11T04:27:45.006Z,4.00
2018-04-11T04:28:45.020Z,4.00
2018-04-11T04:29:45.036Z,4.00
2018-04-11T04:30:45.048Z,4.00
2018-04-11T04:31:45.070Z,4.00
2018-04-11T04:32:45.086Z,4.00
2018-04-11T04:33:45.094Z,4.00
2018-04-11T04:34:45.110Z,4.00
2018-04-11T04:35:45.131Z,4.00
2018-04-11T04:36:45.145Z,4.00
2018-04-11T04:37:45.162Z,4.00
2018-04-11T04:38:45.171Z,4.00
2018-04-11T04:39:45.187Z,4.00
2018-04-11T04:40:45.206Z,4.00
2018-04-11T04:41:45.217Z,4.00
2018-04-11T04:42:45.238Z,4.00
2018-04-11T04:43:45.245Z,4.00
2018-04-11T04:44:45.269Z,4.00
2018-04-11T04:45:45.318Z,4.00
2018-04-11T04:46:45.294Z,4.00
2018-04-11T04:47:45.318Z,4.00
2018-04-11T04:48:45.330Z,4.00
2018-04-11T04:49:45.342Z,4.00
2018-04-11T04:50:45.360Z,4.00
2018-04-11T04:51:45.459Z,4.00
2018-04-11T04:52:45.386Z,4.00
2018-04-11T04:53:45.403Z,4.00
2018-04-11T04:54:45.416Z,4.00
2018-04-11T04:55:45.429Z,4.00
2018-04-11T04:56:45.449Z,4.00
2018-04-11T04:57:45.469Z,4.00
2018-04-11T04:58:45.479Z,4.00
2018-04-11T04:59:45.497Z,4.00
2018-04-11T05:00:45.505Z,4.00
2018-04-11T05:01:45.528Z,4.00
2018-04-11T05:02:45.541Z,4.00
2018-04-11T05:03:45.555Z,4.00
2018-04-11T05:04:45.576Z,4.00
2018-04-11T05:05:45.590Z,4.00
2018-04-11T05:06:45.604Z,4.00
2018-04-11T05:07:45.620Z,4.00
2018-04-11T05:08:45.654Z,4.00
2018-04-11T05:09:45.647Z,4.00
2018-04-11T05:10:45.659Z,4.00
2018-04-11T05:11:45.682Z,4.00
2018-04-11T05:12:45.697Z,4.00
2018-04-11T05:13:45.706Z,4.00
2018-04-11T05:14:45.782Z,4.00
2018-04-11T05:15:45.739Z,4.00
2018-04-11T05:16:45.757Z,4.00
2018-04-11T05:17:45.768Z,4.00
2018-04-11T05:18:45.787Z,4.00
2018-04-11T05:19:45.797Z,4.00
2018-04-11T05:20:45.881Z,4.00
2018-04-11T05:21:45.860Z,4.00
2018-04-11T05:22:45.847Z,4.00
2018-04-11T05:23:45.867Z,4.00
2018-04-11T05:24:45.878Z,4.00
2018-04-11T05:25:45.898Z,4.00
2018-04-11T05:26:45.932Z,4.00
2018-04-11T05:27:45.932Z,4.00
2018-04-11T05:28:45.940Z,4.00
2018-04-11T05:29:45.953Z,4.00
2018-04-11T05:30:45.973Z,4.00
2018-04-11T05:31:45.990Z,4.00
2018-04-11T05:32:46.132Z,4.00
2018-04-11T05:33:46.013Z,4.00
2018-04-11T05:34:46.029Z,4.00
2018-04-11T05:35:46.050Z,4.00
2018-04-11T05:36:46.061Z,4.00
2018-04-11T05:37:46.080Z,0.00
2018-04-11T05:38:46.097Z,0.00
2018-04-11T05:39:46.106Z,0.00
2018-04-11T05:40:46.125Z,0.00
2018-04-11T05:41:46.140Z,0.00
2018-04-11T05:42:46.156Z,4.00
2018-04-11T05:43:46.182Z,4.00
2018-04-11T05:44:46.179Z,4.00
2018-04-11T05:45:46.197Z,0.00
2018-04-11T05:46:46.211Z,4.00
2018-04-11T05:47:46.233Z,8.00
2018-04-11T05:48:46.247Z,4.00
2018-04-11T05:49:46.259Z,4.00
2018-04-11T05:50:46.272Z,8.00
2018-04-11T05:51:46.289Z,8.00
2018-04-11T05:52:46.299Z,8.00
2018-04-11T05:53:46.315Z,12.00
2018-04-11T05:54:46.336Z,12.00
2018-04-11T05:55:46.347Z,16.00
2018-04-11T05:56:46.363Z,20.00
2018-04-11T05:57:46.381Z,20.00
2018-04-11T05:58:46.454Z,24.00
2018-04-11T05:59:46.405Z,28.00
2018-04-11T06:00:46.423Z,32.00
2018-04-11T06:01:46.436Z,36.00
2018-04-11T06:02:46.452Z,44.00
2018-04-11T06:03:46.465Z,48.00
2018-04-11T06:04:46.485Z,56.00
2018-04-11T06:05:46.502Z,64.00
2018-04-11T06:06:46.585Z,72.00
2018-04-11T06:07:46.529Z,80.00
2018-04-11T06:08:46.545Z,92.00
2018-04-11T06:09:46.559Z,108.00
2018-04-11T06:10:46.581Z,116.00
2018-04-11T06:11:46.649Z,132.00
2018-04-11T06:12:46.685Z,144.00
2018-04-11T06:13:46.621Z,148.00
2018-04-11T06:14:46.685Z,148.00
2018-04-11T06:15:46.654Z,152.00
2018-04-11T06:16:46.671Z,156.00
2018-04-11T06:17:46.684Z,164.00
2018-04-11T06:18:46.721Z,172.00
2018-04-11T06:19:46.713Z,184.00
2018-04-11T06:20:46.727Z,204.00
2018-04-11T06:21:46.745Z,228.00
2018-04-11T06:22:46.804Z,248.00
2018-04-11T06:23:46.778Z,264.00
2018-04-11T06:24:46.846Z,284.00
2018-04-11T06:25:46.804Z,304.00
2018-04-11T06:26:46.818Z,332.00
2018-04-11T06:27:46.842Z,376.00
2018-04-11T06:28:46.855Z,404.00
2018-04-11T06:29:46.866Z,428.00
2018-04-11T06:30:46.881Z,456.00
2018-04-11T06:31:46.893Z,484.00
2018-04-11T06:32:46.907Z,508.00
2018-04-11T06:33:46.970Z,536.00
2018-04-11T06:34:46.944Z,560.00
2018-04-11T06:35:46.956Z,584.00
2018-04-11T06:36:46.974Z,612.00
2018-04-11T06:37:46.985Z,636.00
2018-04-11T06:38:47.001Z,656.00
2018-04-11T06:39:47.016Z,684.00
2018-04-11T06:40:47.034Z,708.00
2018-04-11T06:41:47.062Z,736.00
2018-04-11T06:42:47.063Z,764.00
2018-04-11T06:43:47.082Z,796.00
2018-04-11T06:44:47.100Z,828.00
2018-04-11T06:45:47.116Z,848.00
2018-04-11T06:46:47.125Z,868.00
2018-04-11T06:47:47.185Z,888.00
2018-04-11T06:48:47.154Z,908.00
2018-04-11T06:49:47.166Z,916.00
2018-04-11T06:50:47.189Z,808.00
2018-04-11T06:51:47.197Z,796.00
2018-04-11T06:52:47.221Z,964.00
2018-04-11T06:53:47.251Z,976.00
2018-04-11T06:54:47.246Z,988.00
2018-04-11T06:55:47.260Z,884.00
2018-04-11T06:56:47.284Z,1044.00
2018-04-11T06:57:47.296Z,1084.00
2018-04-11T06:58:47.309Z,1128.00
2018-04-11T06:59:47.341Z,1180.00
2018-04-11T07:00:47.346Z,1232.00
2018-04-11T07:01:47.385Z,1292.00
2018-04-11T07:02:47.375Z,1372.00
2018-04-11T07:03:47.389Z,1444.00
2018-04-11T07:04:47.458Z,1496.00
2018-04-11T07:05:47.416Z,1548.00
2018-04-11T07:06:47.434Z,1608.00
2018-04-11T07:07:47.447Z,1688.00
2018-04-11T07:08:47.469Z,1808.00
2018-04-11T07:09:47.482Z,1936.00
2018-04-11T07:10:47.509Z,2152.00
2018-04-11T07:11:47.512Z,2516.00
2018-04-11T07:12:47.527Z,2308.00
2018-04-11T07:13:47.543Z,2944.00
2018-04-11T07:14:47.557Z,1568.00
2018-04-11T07:15:47.578Z,1396.00
2018-04-11T07:16:47.592Z,1432.00
2018-04-11T07:17:47.610Z,1404.00
2018-04-11T07:18:47.626Z,1336.00
2018-04-11T07:19:47.637Z,1284.00
2018-04-11T07:20:47.660Z,1304.00
2018-04-11T07:21:47.675Z,1376.00
2018-04-11T07:22:47.685Z,1556.00
2018-04-11T07:23:47.711Z,4060.00
2018-04-11T07:24:47.721Z,3520.00
2018-04-11T07:25:47.811Z,3672.00
2018-04-11T07:26:47.759Z,2556.00
2018-04-11T07:27:47.772Z,4276.00
2018-04-11T07:28:47.783Z,1992.00
2018-04-11T07:29:47.803Z,2060.00
2018-04-11T07:30:47.815Z,2276.00
2018-04-11T07:31:47.832Z,2324.00
2018-04-11T07:32:47.846Z,2356.00
2018-04-11T07:33:47.881Z,1368.00
2018-04-11T07:34:47.884Z,1188.00
2018-04-11T07:35:47.900Z,1232.00
2018-04-11T07:36:47.925Z,1248.00
2018-04-11T07:37:47.929Z,1220.00
2018-04-11T07:38:47.948Z,3736.00
2018-04-11T07:39:47.969Z,4992.00
2018-04-11T07:40:47.984Z,5056.00
2018-04-11T07:41:47.999Z,5152.00
2018-04-11T07:42:48.019Z,5276.00
2018-04-11T07:43:48.035Z,5380.00
2018-04-11T07:44:48.052Z,5432.00
2018-04-11T07:45:48.076Z,5544.00
2018-04-11T07:46:48.082Z,5468.00
2018-04-11T07:47:48.097Z,5552.00
2018-04-11T07:48:48.115Z,5560.00
2018-04-11T07:49:48.136Z,5616.00
2018-04-11T07:50:48.180Z,5672.00
2018-04-11T07:51:48.175Z,5704.00
2018-04-11T07:52:48.189Z,5788.00
2018-04-11T07:53:48.263Z,5860.00
2018-04-11T07:54:48.227Z,5860.00
2018-04-11T07:55:48.239Z,6080.00
2018-04-11T07:56:48.260Z,6140.00
2018-04-11T07:57:48.323Z,6188.00
2018-04-11T07:58:48.291Z,6256.00
2018-04-11T07:59:48.315Z,6328.00
2018-04-11T08:00:48.328Z,6364.00
2018-04-11T08:01:48.348Z,6408.00
2018-04-11T08:02:48.370Z,6492.00
2018-04-11T08:03:48.387Z,6536.00
2018-04-11T08:04:48.407Z,6580.00
2018-04-11T08:05:48.422Z,6716.00
2018-04-11T08:06:48.440Z,6932.00
2018-04-11T08:07:48.456Z,6788.00
2018-04-11T08:08:48.481Z,6936.00
2018-04-11T08:09:48.545Z,7196.00
2018-04-11T08:10:48.535Z,7076.00
2018-04-11T08:11:48.533Z,6188.00
2018-04-11T08:12:48.561Z,7108.00
2018-04-11T08:13:48.576Z,7156.00
2018-04-11T08:14:48.588Z,7404.00
2018-04-11T08:15:48.606Z,7568.00
2018-04-11T08:16:48.628Z,7440.00
2018-04-11T08:17:48.644Z,7472.00
2018-04-11T08:18:48.670Z,7468.00
2018-04-11T08:19:48.685Z,7740.00
2018-04-11T08:20:48.778Z,2508.00
2018-04-11T08:21:48.728Z,2688.00
2018-04-11T08:22:48.745Z,8100.00
2018-04-11T08:23:48.758Z,7720.00
2018-04-11T08:24:48.776Z,8044.00
2018-04-11T08:26:48.868Z,8508.00
2018-04-11T08:27:48.838Z,5388.00
2018-04-11T08:28:48.862Z,7904.00
2018-04-11T08:29:48.919Z,5788.00
2018-04-11T08:30:48.892Z,2820.00
2018-04-11T08:31:48.906Z,3240.00
2018-04-11T08:32:48.930Z,4172.00
2018-04-11T08:33:48.951Z,3312.00
2018-04-11T08:34:48.966Z,4116.00
2018-04-11T08:35:48.985Z,5360.00
2018-04-11T08:36:49.015Z,8100.00
2018-04-11T08:37:49.020Z,9552.00
2018-04-11T08:38:49.043Z,8772.00
2018-04-11T08:39:49.064Z,3624.00
2018-04-11T08:40:49.150Z,5200.00
2018-04-11T08:41:49.104Z,4268.00
2018-04-11T08:43:49.138Z,4084.00
2018-04-11T08:44:49.209Z,10016.00
2018-04-11T08:45:49.178Z,3880.00
2018-04-11T08:46:49.193Z,9832.00
2018-04-11T08:47:49.211Z,8868.00
2018-04-11T08:48:49.229Z,3300.00
2018-04-11T08:49:49.249Z,3368.00
2018-04-11T08:50:49.270Z,3528.00
2018-04-11T08:51:49.298Z,4232.00
2018-04-11T08:52:49.310Z,3708.00
2018-04-11T08:53:49.320Z,3136.00
2018-04-11T08:54:49.342Z,2196.00
2018-04-11T08:55:49.361Z,2136.00
2018-04-11T08:56:49.433Z,3864.00
2018-04-11T08:58:49.419Z,5704.00
2018-04-11T08:59:49.439Z,3148.00
2018-04-11T09:00:49.451Z,3036.00
2018-04-11T09:01:49.471Z,3336.00
2018-04-11T09:02:49.540Z,4320.00
2018-04-11T09:03:49.511Z,2832.00
2018-04-11T09:04:49.524Z,2652.00
2018-04-11T09:05:49.544Z,2700.00
2018-04-11T09:06:49.560Z,5608.00
2018-04-11T09:08:49.598Z,5964.00
2018-04-11T09:09:49.617Z,9820.00
2018-04-11T09:10:49.638Z,9952.00
2018-04-11T09:11:49.652Z,10116.00
2018-04-11T09:13:49.685Z,10316.00
2018-04-11T09:14:49.706Z,9304.00
2018-04-11T09:15:49.742Z,10672.00
2018-04-11T09:16:49.757Z,10456.00
2018-04-11T09:17:49.769Z,10644.00
2018-04-11T09:18:49.782Z,10828.00
2018-04-11T09:19:49.800Z,10904.00
2018-04-11T09:20:49.901Z,11044.00
2018-04-11T09:21:49.844Z,11092.00
2018-04-11T09:22:49.859Z,10912.00
2018-04-11T09:23:49.873Z,10868.00
2018-04-11T09:24:49.895Z,10944.00
2018-04-11T09:25:49.916Z,10896.00
2018-04-11T09:26:50.028Z,11168.00
2018-04-11T09:27:49.960Z,11468.00
2018-04-11T09:28:49.975Z,4672.00
2018-04-11T09:29:49.998Z,12008.00
2018-04-11T09:30:50.017Z,10912.00
2018-04-11T09:31:50.063Z,12140.00
2018-04-11T09:32:50.116Z,12072.00
2018-04-11T09:33:50.080Z,12184.00
2018-04-11T09:34:50.093Z,10516.00
2018-04-11T09:35:50.113Z,12708.00
2018-04-11T09:36:50.132Z,6536.00
2018-04-11T09:37:50.158Z,5824.00
2018-04-11T09:38:50.175Z,4176.00
2018-04-11T09:39:50.193Z,3044.00
2018-04-11T09:40:50.213Z,2616.00
2018-04-11T09:41:50.242Z,2644.00
2018-04-11T09:42:50.261Z,2804.00
2018-04-11T09:43:50.277Z,3556.00
2018-04-11T09:44:50.370Z,3136.00
2018-04-11T09:45:50.320Z,2320.00
2018-04-11T09:46:50.340Z,2304.00
2018-04-11T09:47:50.354Z,11036.00
2018-04-11T09:48:50.384Z,2208.00
2018-04-11T09:49:50.394Z,8848.00
2018-04-11T09:50:50.414Z,11048.00
2018-04-11T09:51:50.436Z,11376.00
2018-04-11T09:52:50.454Z,11612.00
2018-04-11T09:53:50.472Z,11952.00
2018-04-11T09:54:50.496Z,4648.00
2018-04-11T09:55:50.517Z,12328.00
2018-04-11T09:56:50.637Z,12692.00
2018-04-11T09:57:50.551Z,10136.00
2018-04-11T09:58:50.570Z,10656.00
2018-04-11T09:59:50.590Z,12956.00
2018-04-11T10:00:50.616Z,12292.00
2018-04-11T10:01:50.638Z,12240.00
2018-04-11T10:02:50.655Z,12372.00
2018-04-11T10:03:50.677Z,12308.00
2018-04-11T10:04:50.695Z,12548.00
2018-04-11T10:05:50.718Z,13252.00
2018-04-11T10:06:50.749Z,13828.00
2018-04-11T10:07:50.762Z,11356.00
2018-04-11T10:08:50.772Z,8268.00
2018-04-11T10:09:50.798Z,3544.00
2018-04-11T10:10:50.818Z,4108.00
2018-04-11T10:11:50.841Z,13968.00
2018-04-11T10:12:50.853Z,4572.00
2018-04-11T10:13:50.876Z,3356.00
2018-04-11T10:14:50.902Z,3336.00
2018-04-11T10:15:50.914Z,4316.00
2018-04-11T10:16:50.936Z,12512.00
2018-04-11T10:17:50.959Z,13232.00
2018-04-11T10:18:50.981Z,13480.00
2018-04-11T10:19:51.000Z,5468.00
2018-04-11T10:20:51.074Z,14476.00
2018-04-11T10:21:51.036Z,11712.00
2018-04-11T10:22:51.061Z,9024.00
2018-04-11T10:23:51.075Z,14524.00
2018-04-11T10:24:51.106Z,14260.00
2018-04-11T10:25:51.117Z,7340.00
2018-04-11T10:26:51.190Z,4960.00
2018-04-11T10:27:51.156Z,3952.00
2018-04-11T10:28:51.175Z,3636.00
2018-04-11T10:29:51.206Z,10080.00
2018-04-11T10:30:51.227Z,12868.00
2018-04-11T10:31:51.246Z,12888.00
2018-04-11T10:32:51.260Z,12888.00
2018-04-11T10:33:51.277Z,12804.00
2018-04-11T10:34:51.302Z,12748.00
2018-04-11T10:35:51.314Z,12744.00
2018-04-11T10:36:51.339Z,12832.00
2018-04-11T10:37:51.362Z,13012.00
2018-04-11T10:38:51.429Z,13288.00
2018-04-11T10:39:51.399Z,13528.00
2018-04-11T10:40:51.413Z,13700.00
2018-04-11T10:41:51.440Z,14012.00
2018-04-11T10:42:51.461Z,14064.00
2018-04-11T10:43:51.473Z,12504.00
2018-04-11T10:44:51.545Z,8532.00
2018-04-11T10:45:51.517Z,13824.00
2018-04-11T10:46:51.533Z,13804.00
2018-04-11T10:47:51.559Z,13728.00
2018-04-11T10:48:51.580Z,13740.00
2018-04-11T10:49:51.626Z,13928.00
2018-04-11T10:50:51.675Z,14216.00
2018-04-11T10:51:51.643Z,12572.00
2018-04-11T10:52:51.727Z,14816.00
2018-04-11T10:53:51.691Z,15488.00
2018-04-11T10:54:51.701Z,9064.00
2018-04-11T10:55:51.749Z,6960.00
2018-04-11T10:56:51.792Z,4872.00
2018-04-11T10:57:51.760Z,4320.00
2018-04-11T10:58:51.788Z,4172.00
2018-04-11T10:59:51.804Z,4052.00
2018-04-11T11:00:51.841Z,3956.00
2018-04-11T11:01:51.845Z,4364.00
2018-04-11T11:02:51.918Z,5852.00
2018-04-11T11:03:51.887Z,7904.00
2018-04-11T11:04:51.913Z,16704.00
2018-04-11T11:05:51.933Z,15232.00
2018-04-11T11:06:51.943Z,6192.00
2018-04-11T11:07:51.965Z,5144.00
2018-04-11T11:08:52.037Z,5132.00
2018-04-11T11:09:52.011Z,4952.00
2018-04-11T11:10:52.022Z,4888.00
2018-04-11T11:11:52.047Z,4992.00
2018-04-11T11:12:52.110Z,5048.00
2018-04-11T11:13:52.085Z,5084.00
2018-04-11T11:14:52.153Z,6132.00
2018-04-11T11:15:52.125Z,15648.00
2018-04-11T11:16:52.148Z,7724.00
2018-04-11T11:17:52.165Z,9452.00
2018-04-11T11:18:52.183Z,8540.00
2018-04-11T11:19:52.205Z,7948.00
2018-04-11T11:20:52.278Z,5424.00
2018-04-11T11:21:52.244Z,4616.00
2018-04-11T11:22:52.313Z,4048.00
2018-04-11T11:23:52.351Z,3744.00
2018-04-11T11:24:52.304Z,3596.00
2018-04-11T11:25:52.324Z,3736.00
2018-04-11T11:26:52.342Z,3932.00
2018-04-11T11:27:52.363Z,4364.00
2018-04-11T11:28:52.396Z,4652.00
2018-04-11T11:29:52.399Z,5752.00
2018-04-11T11:30:52.418Z,6076.00
2018-04-11T11:31:52.456Z,6708.00
2018-04-11T11:32:52.463Z,5428.00
2018-04-11T11:33:52.482Z,15072.00
2018-04-11T11:34:52.517Z,15264.00
2018-04-11T11:35:52.578Z,16064.00
2018-04-11T11:36:52.540Z,6336.00
2018-04-11T11:37:52.555Z,16256.00
2018-04-11T11:38:52.578Z,6772.00
2018-04-11T11:39:52.614Z,10072.00
2018-04-11T11:40:52.624Z,5896.00
2018-04-11T11:41:52.639Z,4908.00
2018-04-11T11:42:52.652Z,3848.00
2018-04-11T11:43:52.679Z,3012.00
2018-04-11T11:44:52.695Z,2592.00
2018-04-11T11:45:52.718Z,2472.00
2018-04-11T11:46:52.741Z,2728.00
2018-04-11T11:47:52.757Z,2828.00
2018-04-11T11:48:52.775Z,2492.00
2018-04-11T11:49:52.798Z,2412.00
2018-04-11T11:50:52.863Z,2416.00
2018-04-11T11:51:52.836Z,2860.00
2018-04-11T11:52:52.849Z,3264.00
2018-04-11T11:53:52.875Z,3864.00
2018-04-11T11:54:52.891Z,4532.00
2018-04-11T11:55:52.915Z,5456.00
2018-04-11T11:56:53.020Z,7384.00
2018-04-11T11:57:52.956Z,12728.00
2018-04-11T11:58:52.965Z,8688.00
2018-04-11T11:59:52.987Z,9572.00
2018-04-11T12:00:53.013Z,10748.00
2018-04-11T12:01:53.037Z,15136.00
2018-04-11T12:02:53.104Z,9764.00
2018-04-11T12:04:53.114Z,10876.00
2018-04-11T12:05:53.114Z,10412.00
2018-04-11T12:10:53.218Z,4728.00
2018-04-11T12:11:53.259Z,4176.00
2018-04-11T12:19:53.388Z,13860.00
2018-04-11T12:20:53.388Z,13940.00
2018-04-11T12:21:53.407Z,14104.00
2018-04-11T12:23:53.452Z,14424.00
2018-04-11T12:24:53.478Z,15072.00
2018-04-11T12:25:53.489Z,16096.00
2018-04-11T12:26:53.558Z,11724.00
2018-04-11T12:27:53.528Z,6584.00
2018-04-11T12:28:53.546Z,5388.00
2018-04-11T12:29:53.573Z,4668.00
2018-04-11T12:30:53.584Z,4232.00
2018-04-11T12:31:53.607Z,4092.00
2018-04-11T12:32:53.676Z,3852.00
2018-04-11T12:33:53.650Z,3728.00
2018-04-11T12:34:53.666Z,3944.00
2018-04-11T12:35:53.727Z,4088.00
2018-04-11T12:36:53.742Z,4044.00
2018-04-11T12:37:53.731Z,4132.00
2018-04-11T12:38:53.744Z,4292.00
2018-04-11T12:39:53.762Z,4552.00
2018-04-11T12:40:53.789Z,5020.00
2018-04-11T12:41:53.855Z,5628.00
2018-04-11T12:42:53.824Z,6156.00
2018-04-11T12:43:53.848Z,6340.00
2018-04-11T12:44:53.912Z,7908.00
2018-04-11T12:45:53.883Z,8228.00
2018-04-11T12:46:53.901Z,8040.00
2018-04-11T12:47:53.917Z,9160.00
2018-04-11T12:48:53.936Z,12532.00
2018-04-11T12:49:53.952Z,14880.00
2018-04-11T12:50:53.976Z,14576.00
2018-04-11T12:51:53.989Z,15136.00
2018-04-11T12:52:54.071Z,14544.00
2018-04-11T12:53:54.030Z,12116.00
2018-04-11T12:54:54.050Z,15936.00
2018-04-11T12:55:54.072Z,7020.00
2018-04-11T12:56:54.088Z,7448.00